sensor_id;sensor_type;location;lat;lon;timestamp;temperature;humidity
45409;DHT22;31162;51.076;3.784;2023-04-28T00:02:07;11.10;99.90
45409;DHT22;31162;51.076;3.784;2023-04-28T00:04:32;11.20;99.90
45409;DHT22;31162;51.076;3.784;2023-04-28T00:06:58;11.20;99.90
45409;DHT22;31162;51.076;3.784;2023-04-28T00:09:24;11.30;99.90
45409;DHT22;31162;51.076;3.784;2023-04-28T00:11:49;11.40;99.90
45409;DHT22;31162;51.076;3.784;2023-04-28T00:14:15;11.30;99.90
45409;DHT22;31162;51.076;3.784;2023-04-28T00:16:41;11.20;99.90
45409;DHT22;31162;51.076;3.784;2023-04-28T00:19:06;11.20;99.90
45409;DHT22;31162;51.076;3.784;2023-04-28T00:21:32;11.20;99.90
45409;DHT22;31162;51.076;3.784;2023-04-28T00:23:58;11.20;99.90
45409;DHT22;31162;51.076;3.784;2023-04-28T00:26:24;11.10;99.90
45409;DHT22;31162;51.076;3.784;2023-04-28T00:28:49;11.10;99.90
45409;DHT22;31162;51.076;3.784;2023-04-28T00:31:15;11.10;99.90
45409;DHT22;31162;51.076;3.784;2023-04-28T00:33:42;11.20;99.90
45409;DHT22;31162;51.076;3.784;2023-04-28T00:36:08;11.30;99.90
45409;DHT22;31162;51.076;3.784;2023-04-28T00:38:34;11.10;99.90
45409;DHT22;31162;51.076;3.784;2023-04-28T00:41:00;11.10;99.90
45409;DHT22;31162;51.076;3.784;2023-04-28T00:43:26;11.30;99.90
45409;DHT22;31162;51.076;3.784;2023-04-28T00:45:51;11.10;99.90
45409;DHT22;31162;51.076;3.784;2023-04-28T00:48:17;11.20;99.90
45409;DHT22;31162;51.076;3.784;2023-04-28T00:50:44;11.30;99.90
45409;DHT22;31162;51.076;3.784;2023-04-28T00:53:13;11.30;99.90
45409;DHT22;31162;51.076;3.784;2023-04-28T00:55:39;11.40;99.90
45409;DHT22;31162;51.076;3.784;2023-04-28T00:58:06;11.60;99.90
45409;DHT22;31162;51.076;3.784;2023-04-28T01:00:32;11.70;99.90
45409;DHT22;31162;51.076;3.784;2023-04-28T01:02:58;11.70;99.90
45409;DHT22;31162;51.076;3.784;2023-04-28T01:05:28;11.50;99.90
45409;DHT22;31162;51.076;3.784;2023-04-28T01:07:53;11.40;99.90
45409;DHT22;31162;51.076;3.784;2023-04-28T01:10:19;11.20;99.90
45409;DHT22;31162;51.076;3.784;2023-04-28T01:12:45;11.00;99.90
45409;DHT22;31162;51.076;3.784;2023-04-28T01:15:18;10.50;99.90
45409;DHT22;31162;51.076;3.784;2023-04-28T01:17:45;10.30;99.90
45409;DHT22;31162;51.076;3.784;2023-04-28T01:20:12;10.20;99.90
45409;DHT22;31162;51.076;3.784;2023-04-28T01:22:37;10.30;99.90
45409;DHT22;31162;51.076;3.784;2023-04-28T01:25:03;10.10;99.90
45409;DHT22;31162;51.076;3.784;2023-04-28T01:27:29;10.00;99.90
45409;DHT22;31162;51.076;3.784;2023-04-28T01:29:55;9.80;99.90
45409;DHT22;31162;51.076;3.784;2023-04-28T01:32:22;9.60;99.90
45409;DHT22;31162;51.076;3.784;2023-04-28T01:34:48;9.50;99.90
45409;DHT22;31162;51.076;3.784;2023-04-28T01:37:14;9.60;99.90
45409;DHT22;31162;51.076;3.784;2023-04-28T01:39:39;9.60;99.90
45409;DHT22;31162;51.076;3.784;2023-04-28T01:42:05;9.60;99.90
45409;DHT22;31162;51.076;3.784;2023-04-28T01:44:30;9.50;99.90
45409;DHT22;31162;51.076;3.784;2023-04-28T01:46:56;9.50;99.90
45409;DHT22;31162;51.076;3.784;2023-04-28T01:49:22;9.60;99.90
45409;DHT22;31162;51.076;3.784;2023-04-28T01:51:48;9.70;99.90
45409;DHT22;31162;51.076;3.784;2023-04-28T01:54:14;9.80;99.90
45409;DHT22;31162;51.076;3.784;2023-04-28T01:56:39;9.80;99.90
45409;DHT22;31162;51.076;3.784;2023-04-28T01:59:05;9.80;99.90
45409;DHT22;31162;51.076;3.784;2023-04-28T02:01:31;9.90;99.90
45409;DHT22;31162;51.076;3.784;2023-04-28T02:03:59;10.10;99.90
45409;DHT22;31162;51.076;3.784;2023-04-28T02:06:25;10.20;99.90
45409;DHT22;31162;51.076;3.784;2023-04-28T02:08:52;10.30;99.90
45409;DHT22;31162;51.076;3.784;2023-04-28T02:11:17;10.30;99.90
45409;DHT22;31162;51.076;3.784;2023-04-28T02:13:43;10.20;99.90
45409;DHT22;31162;51.076;3.784;2023-04-28T02:16:09;10.10;99.90
45409;DHT22;31162;51.076;3.784;2023-04-28T02:18:34;10.30;99.90
45409;DHT22;31162;51.076;3.784;2023-04-28T02:21:10;10.20;99.90
45409;DHT22;31162;51.076;3.784;2023-04-28T02:23:36;10.10;99.90
45409;DHT22;31162;51.076;3.784;2023-04-28T02:26:02;10.10;99.90
45409;DHT22;31162;51.076;3.784;2023-04-28T02:28:28;10.10;99.90
45409;DHT22;31162;51.076;3.784;2023-04-28T02:31:06;10.10;99.90
45409;DHT22;31162;51.076;3.784;2023-04-28T02:33:32;10.20;99.90
45409;DHT22;31162;51.076;3.784;2023-04-28T02:35:59;10.30;99.90
45409;DHT22;31162;51.076;3.784;2023-04-28T02:38:25;10.30;99.90
45409;DHT22;31162;51.076;3.784;2023-04-28T02:40:57;10.30;99.90
45409;DHT22;31162;51.076;3.784;2023-04-28T02:43:23;10.40;99.90
45409;DHT22;31162;51.076;3.784;2023-04-28T02:45:49;10.30;99.90
45409;DHT22;31162;51.076;3.784;2023-04-28T02:48:14;10.30;99.90
45409;DHT22;31162;51.076;3.784;2023-04-28T02:50:40;10.40;99.90
45409;DHT22;31162;51.076;3.784;2023-04-28T02:53:05;10.50;99.90
45409;DHT22;31162;51.076;3.784;2023-04-28T02:55:31;10.50;99.90
45409;DHT22;31162;51.076;3.784;2023-04-28T02:57:57;10.40;99.90
45409;DHT22;31162;51.076;3.784;2023-04-28T03:00:22;10.40;99.90
45409;DHT22;31162;51.076;3.784;2023-04-28T03:02:48;10.30;99.90
45409;DHT22;31162;51.076;3.784;2023-04-28T03:05:14;10.10;99.90
45409;DHT22;31162;51.076;3.784;2023-04-28T03:07:40;10.30;99.90
45409;DHT22;31162;51.076;3.784;2023-04-28T03:10:08;10.60;99.90
45409;DHT22;31162;51.076;3.784;2023-04-28T03:12:34;10.50;99.90
45409;DHT22;31162;51.076;3.784;2023-04-28T03:14:59;10.30;99.90
45409;DHT22;31162;51.076;3.784;2023-04-28T03:17:26;10.20;99.90
45409;DHT22;31162;51.076;3.784;2023-04-28T03:19:52;10.10;99.90
45409;DHT22;31162;51.076;3.784;2023-04-28T03:22:17;10.00;99.90
45409;DHT22;31162;51.076;3.784;2023-04-28T03:24:43;10.20;99.90
45409;DHT22;31162;51.076;3.784;2023-04-28T03:27:11;10.20;99.90
45409;DHT22;31162;51.076;3.784;2023-04-28T03:29:36;10.40;99.90
45409;DHT22;31162;51.076;3.784;2023-04-28T03:32:04;10.60;99.90
45409;DHT22;31162;51.076;3.784;2023-04-28T03:34:31;10.60;99.90
45409;DHT22;31162;51.076;3.784;2023-04-28T03:36:56;10.40;99.90
45409;DHT22;31162;51.076;3.784;2023-04-28T03:39:22;10.40;99.90
45409;DHT22;31162;51.076;3.784;2023-04-28T03:41:47;10.20;99.90
45409;DHT22;31162;51.076;3.784;2023-04-28T03:44:13;10.10;99.90
45409;DHT22;31162;51.076;3.784;2023-04-28T03:46:39;10.30;99.90
45409;DHT22;31162;51.076;3.784;2023-04-28T03:49:05;10.40;99.90
45409;DHT22;31162;51.076;3.784;2023-04-28T03:51:30;10.40;99.90
45409;DHT22;31162;51.076;3.784;2023-04-28T03:53:57;10.40;99.90
45409;DHT22;31162;51.076;3.784;2023-04-28T03:56:23;10.50;99.90
45409;DHT22;31162;51.076;3.784;2023-04-28T03:58:48;10.40;99.90
45409;DHT22;31162;51.076;3.784;2023-04-28T04:01:14;10.40;99.90
45409;DHT22;31162;51.076;3.784;2023-04-28T04:03:40;10.40;99.90
45409;DHT22;31162;51.076;3.784;2023-04-28T04:06:08;10.40;99.90
45409;DHT22;31162;51.076;3.784;2023-04-28T04:08:34;10.50;99.90
45409;DHT22;31162;51.076;3.784;2023-04-28T04:10:59;10.40;99.90
45409;DHT22;31162;51.076;3.784;2023-04-28T04:13:25;10.40;99.90
45409;DHT22;31162;51.076;3.784;2023-04-28T04:15:51;10.40;99.90
45409;DHT22;31162;51.076;3.784;2023-04-28T04:18:19;10.50;99.90
45409;DHT22;31162;51.076;3.784;2023-04-28T04:20:45;10.40;99.90
45409;DHT22;31162;51.076;3.784;2023-04-28T04:23:10;10.60;99.90
45409;DHT22;31162;51.076;3.784;2023-04-28T04:25:36;10.60;99.90
45409;DHT22;31162;51.076;3.784;2023-04-28T04:28:02;10.60;99.90
45409;DHT22;31162;51.076;3.784;2023-04-28T04:30:28;10.70;99.90
45409;DHT22;31162;51.076;3.784;2023-04-28T04:32:53;10.90;99.90
45409;DHT22;31162;51.076;3.784;2023-04-28T04:35:19;11.00;99.90
45409;DHT22;31162;51.076;3.784;2023-04-28T04:37:45;11.10;99.90
45409;DHT22;31162;51.076;3.784;2023-04-28T04:40:10;11.20;99.90
45409;DHT22;31162;51.076;3.784;2023-04-28T04:42:36;11.10;99.90
45409;DHT22;31162;51.076;3.784;2023-04-28T04:45:02;11.10;99.90
45409;DHT22;31162;51.076;3.784;2023-04-28T04:47:28;11.20;99.90
45409;DHT22;31162;51.076;3.784;2023-04-28T04:49:53;11.10;99.90
45409;DHT22;31162;51.076;3.784;2023-04-28T04:52:19;11.00;99.90
45409;DHT22;31162;51.076;3.784;2023-04-28T04:54:45;11.00;99.90
45409;DHT22;31162;51.076;3.784;2023-04-28T04:57:11;10.80;99.90
45409;DHT22;31162;51.076;3.784;2023-04-28T04:59:37;10.90;99.90
45409;DHT22;31162;51.076;3.784;2023-04-28T05:02:03;11.10;99.90
45409;DHT22;31162;51.076;3.784;2023-04-28T05:04:28;11.20;99.90
45409;DHT22;31162;51.076;3.784;2023-04-28T05:06:54;11.40;99.90
45409;DHT22;31162;51.076;3.784;2023-04-28T05:09:20;11.70;99.90
45409;DHT22;31162;51.076;3.784;2023-04-28T05:11:47;11.40;99.90
45409;DHT22;31162;51.076;3.784;2023-04-28T05:14:13;11.40;99.90
45409;DHT22;31162;51.076;3.784;2023-04-28T05:16:40;11.50;99.90
45409;DHT22;31162;51.076;3.784;2023-04-28T05:19:06;11.50;99.90
45409;DHT22;31162;51.076;3.784;2023-04-28T05:21:32;11.60;99.90
45409;DHT22;31162;51.076;3.784;2023-04-28T05:23:57;11.60;99.90
45409;DHT22;31162;51.076;3.784;2023-04-28T05:26:23;11.60;99.90
45409;DHT22;31162;51.076;3.784;2023-04-28T05:28:48;11.70;99.90
45409;DHT22;31162;51.076;3.784;2023-04-28T05:31:17;11.70;99.90
45409;DHT22;31162;51.076;3.784;2023-04-28T05:33:42;11.90;99.90
45409;DHT22;31162;51.076;3.784;2023-04-28T05:36:08;11.90;99.90
45409;DHT22;31162;51.076;3.784;2023-04-28T05:38:34;12.10;99.90
45409;DHT22;31162;51.076;3.784;2023-04-28T05:41:00;12.10;99.90
45409;DHT22;31162;51.076;3.784;2023-04-28T05:43:26;12.20;99.90
45409;DHT22;31162;51.076;3.784;2023-04-28T05:45:52;12.20;99.90
45409;DHT22;31162;51.076;3.784;2023-04-28T05:48:18;12.20;99.90
45409;DHT22;31162;51.076;3.784;2023-04-28T05:50:44;12.20;99.90
45409;DHT22;31162;51.076;3.784;2023-04-28T05:53:10;12.40;99.90
45409;DHT22;31162;51.076;3.784;2023-04-28T05:55:36;12.40;99.90
45409;DHT22;31162;51.076;3.784;2023-04-28T05:58:02;12.50;99.90
45409;DHT22;31162;51.076;3.784;2023-04-28T06:00:28;12.60;99.90
45409;DHT22;31162;51.076;3.784;2023-04-28T06:02:53;12.70;99.90
45409;DHT22;31162;51.076;3.784;2023-04-28T06:05:19;12.80;99.90
45409;DHT22;31162;51.076;3.784;2023-04-28T06:07:45;12.80;99.90
45409;DHT22;31162;51.076;3.784;2023-04-28T06:10:11;12.90;99.90
45409;DHT22;31162;51.076;3.784;2023-04-28T06:12:37;13.10;99.90
45409;DHT22;31162;51.076;3.784;2023-04-28T06:15:03;13.30;99.90
45409;DHT22;31162;51.076;3.784;2023-04-28T06:17:29;13.40;99.90
45409;DHT22;31162;51.076;3.784;2023-04-28T06:19:55;13.70;99.90
45409;DHT22;31162;51.076;3.784;2023-04-28T06:22:26;14.10;99.90
45409;DHT22;31162;51.076;3.784;2023-04-28T06:24:51;14.20;99.90
45409;DHT22;31162;51.076;3.784;2023-04-28T06:27:17;14.50;99.90
45409;DHT22;31162;51.076;3.784;2023-04-28T06:29:43;14.50;99.90
45409;DHT22;31162;51.076;3.784;2023-04-28T06:32:09;14.60;99.90
45409;DHT22;31162;51.076;3.784;2023-04-28T06:34:35;14.50;99.90
45409;DHT22;31162;51.076;3.784;2023-04-28T06:37:01;14.60;99.90
45409;DHT22;31162;51.076;3.784;2023-04-28T06:39:27;14.70;99.90
45409;DHT22;31162;51.076;3.784;2023-04-28T06:41:52;14.80;99.90
45409;DHT22;31162;51.076;3.784;2023-04-28T06:44:18;15.00;99.90
45409;DHT22;31162;51.076;3.784;2023-04-28T06:46:44;14.90;99.90
45409;DHT22;31162;51.076;3.784;2023-04-28T06:49:10;15.00;99.90
45409;DHT22;31162;51.076;3.784;2023-04-28T06:51:36;15.10;99.90
45409;DHT22;31162;51.076;3.784;2023-04-28T06:54:01;15.20;99.90
45409;DHT22;31162;51.076;3.784;2023-04-28T06:56:27;15.30;99.90
45409;DHT22;31162;51.076;3.784;2023-04-28T06:58:56;15.50;99.90
45409;DHT22;31162;51.076;3.784;2023-04-28T07:01:23;15.60;99.90
45409;DHT22;31162;51.076;3.784;2023-04-28T07:03:49;15.60;99.90
45409;DHT22;31162;51.076;3.784;2023-04-28T07:06:14;15.60;99.90
45409;DHT22;31162;51.076;3.784;2023-04-28T07:08:42;15.60;99.90
45409;DHT22;31162;51.076;3.784;2023-04-28T07:11:07;15.60;99.90
45409;DHT22;31162;51.076;3.784;2023-04-28T07:13:33;15.60;99.90
45409;DHT22;31162;51.076;3.784;2023-04-28T07:15:59;15.70;99.90
45409;DHT22;31162;51.076;3.784;2023-04-28T07:18:24;15.70;99.90
45409;DHT22;31162;51.076;3.784;2023-04-28T07:20:50;15.60;99.90
45409;DHT22;31162;51.076;3.784;2023-04-28T07:23:16;15.70;99.90
45409;DHT22;31162;51.076;3.784;2023-04-28T07:25:42;15.60;99.90
45409;DHT22;31162;51.076;3.784;2023-04-28T07:28:08;15.70;99.90
45409;DHT22;31162;51.076;3.784;2023-04-28T07:30:34;15.60;99.90
45409;DHT22;31162;51.076;3.784;2023-04-28T07:33:00;15.60;99.90
45409;DHT22;31162;51.076;3.784;2023-04-28T07:35:27;15.60;99.90
45409;DHT22;31162;51.076;3.784;2023-04-28T07:37:53;15.70;99.90
45409;DHT22;31162;51.076;3.784;2023-04-28T07:40:19;15.70;99.90
45409;DHT22;31162;51.076;3.784;2023-04-28T07:42:46;15.80;99.90
45409;DHT22;31162;51.076;3.784;2023-04-28T07:45:13;15.80;99.90
45409;DHT22;31162;51.076;3.784;2023-04-28T07:47:38;15.90;99.90
45409;DHT22;31162;51.076;3.784;2023-04-28T07:50:04;15.90;99.90
45409;DHT22;31162;51.076;3.784;2023-04-28T07:52:31;16.00;99.90
45409;DHT22;31162;51.076;3.784;2023-04-28T07:55:00;16.30;99.90
45409;DHT22;31162;51.076;3.784;2023-04-28T07:57:27;16.40;99.90
45409;DHT22;31162;51.076;3.784;2023-04-28T07:59:56;16.60;99.90
45409;DHT22;31162;51.076;3.784;2023-04-28T08:02:22;16.80;99.90
45409;DHT22;31162;51.076;3.784;2023-04-28T08:04:47;17.00;99.90
45409;DHT22;31162;51.076;3.784;2023-04-28T08:07:13;17.30;99.90
45409;DHT22;31162;51.076;3.784;2023-04-28T08:09:39;17.40;99.90
45409;DHT22;31162;51.076;3.784;2023-04-28T08:12:07;17.50;99.90
45409;DHT22;31162;51.076;3.784;2023-04-28T08:14:33;17.50;99.90
45409;DHT22;31162;51.076;3.784;2023-04-28T08:16:58;17.20;99.90
45409;DHT22;31162;51.076;3.784;2023-04-28T08:19:24;17.20;99.90
45409;DHT22;31162;51.076;3.784;2023-04-28T08:21:50;17.30;99.90
45409;DHT22;31162;51.076;3.784;2023-04-28T08:24:15;17.20;99.90
45409;DHT22;31162;51.076;3.784;2023-04-28T08:26:41;17.30;99.90
45409;DHT22;31162;51.076;3.784;2023-04-28T08:29:07;17.20;99.90
45409;DHT22;31162;51.076;3.784;2023-04-28T08:31:33;16.90;99.90
45409;DHT22;31162;51.076;3.784;2023-04-28T08:33:58;16.80;99.90
45409;DHT22;31162;51.076;3.784;2023-04-28T08:36:24;16.70;99.90
45409;DHT22;31162;51.076;3.784;2023-04-28T08:38:53;16.70;99.90
45409;DHT22;31162;51.076;3.784;2023-04-28T08:41:19;16.60;99.90
45409;DHT22;31162;51.076;3.784;2023-04-28T08:43:48;16.70;99.90
45409;DHT22;31162;51.076;3.784;2023-04-28T08:46:15;16.80;99.90
45409;DHT22;31162;51.076;3.784;2023-04-28T08:48:43;16.90;99.90
45409;DHT22;31162;51.076;3.784;2023-04-28T08:51:21;16.80;99.90
45409;DHT22;31162;51.076;3.784;2023-04-28T08:53:49;16.80;99.90
45409;DHT22;31162;51.076;3.784;2023-04-28T08:56:20;16.90;99.90
45409;DHT22;31162;51.076;3.784;2023-04-28T08:58:49;16.80;99.90
45409;DHT22;31162;51.076;3.784;2023-04-28T09:01:16;16.60;99.90
45409;DHT22;31162;51.076;3.784;2023-04-28T09:03:42;16.60;99.90
45409;DHT22;31162;51.076;3.784;2023-04-28T09:06:08;16.60;99.90
45409;DHT22;31162;51.076;3.784;2023-04-28T09:08:33;16.50;99.90
45409;DHT22;31162;51.076;3.784;2023-04-28T09:11:09;16.30;99.90
45409;DHT22;31162;51.076;3.784;2023-04-28T09:13:38;16.50;99.90
45409;DHT22;31162;51.076;3.784;2023-04-28T09:16:07;16.90;99.90
45409;DHT22;31162;51.076;3.784;2023-04-28T09:18:32;17.30;99.90
45409;DHT22;31162;51.076;3.784;2023-04-28T09:21:06;17.40;99.90
45409;DHT22;31162;51.076;3.784;2023-04-28T09:23:32;17.10;99.90
45409;DHT22;31162;51.076;3.784;2023-04-28T09:26:05;16.80;99.90
45409;DHT22;31162;51.076;3.784;2023-04-28T09:28:33;16.70;99.90
45409;DHT22;31162;51.076;3.784;2023-04-28T09:30:59;16.70;99.90
45409;DHT22;31162;51.076;3.784;2023-04-28T09:33:25;16.50;99.90
45409;DHT22;31162;51.076;3.784;2023-04-28T09:35:53;16.50;99.90
45409;DHT22;31162;51.076;3.784;2023-04-28T09:38:21;16.50;99.90
45409;DHT22;31162;51.076;3.784;2023-04-28T09:40:50;16.50;99.90
45409;DHT22;31162;51.076;3.784;2023-04-28T09:43:43;16.40;99.90
45409;DHT22;31162;51.076;3.784;2023-04-28T09:46:08;16.20;99.90
45409;DHT22;31162;51.076;3.784;2023-04-28T09:48:36;16.10;99.90
45409;DHT22;31162;51.076;3.784;2023-04-28T09:51:04;16.00;99.90
45409;DHT22;31162;51.076;3.784;2023-04-28T09:53:31;16.00;99.90
45409;DHT22;31162;51.076;3.784;2023-04-28T09:55:58;16.10;99.90
45409;DHT22;31162;51.076;3.784;2023-04-28T09:58:25;16.20;99.90
45409;DHT22;31162;51.076;3.784;2023-04-28T10:00:57;16.20;99.90
45409;DHT22;31162;51.076;3.784;2023-04-28T10:03:25;16.00;99.90
45409;DHT22;31162;51.076;3.784;2023-04-28T10:05:52;15.70;99.90
45409;DHT22;31162;51.076;3.784;2023-04-28T10:08:22;15.90;99.90
45409;DHT22;31162;51.076;3.784;2023-04-28T10:10:49;16.00;99.90
45409;DHT22;31162;51.076;3.784;2023-04-28T10:13:19;16.10;99.90
45409;DHT22;31162;51.076;3.784;2023-04-28T10:15:45;16.20;99.90
45409;DHT22;31162;51.076;3.784;2023-04-28T10:18:12;16.20;99.90
45409;DHT22;31162;51.076;3.784;2023-04-28T10:20:44;16.40;99.90
45409;DHT22;31162;51.076;3.784;2023-04-28T10:26:00;16.20;99.90
45409;DHT22;31162;51.076;3.784;2023-04-28T10:28:27;16.20;99.90
45409;DHT22;31162;51.076;3.784;2023-04-28T10:33:42;16.50;99.90
45409;DHT22;31162;51.076;3.784;2023-04-28T10:36:08;16.70;99.90
45409;DHT22;31162;51.076;3.784;2023-04-28T10:38:35;16.60;99.90
45409;DHT22;31162;51.076;3.784;2023-04-28T10:41:01;16.70;99.90
45409;DHT22;31162;51.076;3.784;2023-04-28T10:43:54;16.50;99.90
45409;DHT22;31162;51.076;3.784;2023-04-28T10:46:19;16.20;99.90
45409;DHT22;31162;51.076;3.784;2023-04-28T10:51:32;16.10;99.90
45409;DHT22;31162;51.076;3.784;2023-04-28T10:56:25;16.40;99.90
45409;DHT22;31162;51.076;3.784;2023-04-28T11:06:33;17.10;99.90
45409;DHT22;31162;51.076;3.784;2023-04-28T11:14:36;17.20;99.90
45409;DHT22;31162;51.076;3.784;2023-04-28T11:17:09;17.30;99.90
45409;DHT22;31162;51.076;3.784;2023-04-28T11:22:10;17.50;99.90
45409;DHT22;31162;51.076;3.784;2023-04-28T11:24:38;17.60;99.90
45409;DHT22;31162;51.076;3.784;2023-04-28T11:27:04;17.60;99.90
45409;DHT22;31162;51.076;3.784;2023-04-28T11:29:39;17.60;99.90
45409;DHT22;31162;51.076;3.784;2023-04-28T11:32:07;17.60;99.90
45409;DHT22;31162;51.076;3.784;2023-04-28T11:34:33;17.80;99.90
45409;DHT22;31162;51.076;3.784;2023-04-28T11:36:59;17.90;99.90
45409;DHT22;31162;51.076;3.784;2023-04-28T11:39:26;18.60;99.90
45409;DHT22;31162;51.076;3.784;2023-04-28T11:41:53;19.10;99.90
45409;DHT22;31162;51.076;3.784;2023-04-28T11:44:21;19.40;99.90
45409;DHT22;31162;51.076;3.784;2023-04-28T11:46:52;19.10;99.90
45409;DHT22;31162;51.076;3.784;2023-04-28T11:49:42;18.80;99.90
45409;DHT22;31162;51.076;3.784;2023-04-28T11:52:09;18.90;99.90
45409;DHT22;31162;51.076;3.784;2023-04-28T11:54:35;19.50;99.90
45409;DHT22;31162;51.076;3.784;2023-04-28T11:57:02;19.40;99.90
45409;DHT22;31162;51.076;3.784;2023-04-28T11:59:31;19.20;99.90
45409;DHT22;31162;51.076;3.784;2023-04-28T12:02:00;19.10;99.90
45409;DHT22;31162;51.076;3.784;2023-04-28T12:04:31;18.70;99.90
45409;DHT22;31162;51.076;3.784;2023-04-28T12:07:06;18.50;99.90
45409;DHT22;31162;51.076;3.784;2023-04-28T12:09:36;18.10;99.90
45409;DHT22;31162;51.076;3.784;2023-04-28T12:12:07;17.80;99.90
45409;DHT22;31162;51.076;3.784;2023-04-28T12:17:29;17.60;99.90
45409;DHT22;31162;51.076;3.784;2023-04-28T12:19:56;17.50;99.90
45409;DHT22;31162;51.076;3.784;2023-04-28T12:22:23;17.50;99.90
45409;DHT22;31162;51.076;3.784;2023-04-28T12:27:31;17.60;99.90
45409;DHT22;31162;51.076;3.784;2023-04-28T12:29:57;17.50;99.90
45409;DHT22;31162;51.076;3.784;2023-04-28T12:32:39;17.50;99.90
45409;DHT22;31162;51.076;3.784;2023-04-28T12:35:06;17.90;99.90
45409;DHT22;31162;51.076;3.784;2023-04-28T12:37:32;18.40;99.90
45409;DHT22;31162;51.076;3.784;2023-04-28T12:39:58;18.60;99.90
45409;DHT22;31162;51.076;3.784;2023-04-28T12:42:23;18.60;99.90
45409;DHT22;31162;51.076;3.784;2023-04-28T12:44:49;18.60;99.90
45409;DHT22;31162;51.076;3.784;2023-04-28T12:47:15;18.90;99.90
45409;DHT22;31162;51.076;3.784;2023-04-28T12:49:45;19.10;99.90
45409;DHT22;31162;51.076;3.784;2023-04-28T12:52:11;19.50;99.90
45409;DHT22;31162;51.076;3.784;2023-04-28T12:54:37;19.40;99.90
45409;DHT22;31162;51.076;3.784;2023-04-28T12:57:06;19.30;99.90
45409;DHT22;31162;51.076;3.784;2023-04-28T12:59:32;19.00;99.90
45409;DHT22;31162;51.076;3.784;2023-04-28T13:01:57;18.80;99.90
45409;DHT22;31162;51.076;3.784;2023-04-28T13:04:23;18.70;99.90
45409;DHT22;31162;51.076;3.784;2023-04-28T13:06:49;18.90;99.90
45409;DHT22;31162;51.076;3.784;2023-04-28T13:09:15;19.30;99.90
45409;DHT22;31162;51.076;3.784;2023-04-28T13:11:41;19.20;99.90
45409;DHT22;31162;51.076;3.784;2023-04-28T13:14:08;19.20;99.90
45409;DHT22;31162;51.076;3.784;2023-04-28T13:16:35;19.30;99.90
45409;DHT22;31162;51.076;3.784;2023-04-28T13:19:01;19.50;99.90
45409;DHT22;31162;51.076;3.784;2023-04-28T13:21:27;19.60;99.90
45409;DHT22;31162;51.076;3.784;2023-04-28T13:23:54;19.60;99.90
45409;DHT22;31162;51.076;3.784;2023-04-28T13:26:20;19.70;99.90
45409;DHT22;31162;51.076;3.784;2023-04-28T13:28:49;19.60;99.90
45409;DHT22;31162;51.076;3.784;2023-04-28T13:31:15;19.70;99.90
45409;DHT22;31162;51.076;3.784;2023-04-28T13:33:40;19.80;99.90
45409;DHT22;31162;51.076;3.784;2023-04-28T13:36:08;19.80;99.90
45409;DHT22;31162;51.076;3.784;2023-04-28T13:38:34;19.70;99.90
45409;DHT22;31162;51.076;3.784;2023-04-28T13:41:01;19.90;99.90
45409;DHT22;31162;51.076;3.784;2023-04-28T13:43:26;20.40;99.90
45409;DHT22;31162;51.076;3.784;2023-04-28T13:45:55;20.50;99.90
45409;DHT22;31162;51.076;3.784;2023-04-28T13:48:20;20.50;99.90
45409;DHT22;31162;51.076;3.784;2023-04-28T13:50:46;20.30;99.90
45409;DHT22;31162;51.076;3.784;2023-04-28T13:53:12;20.40;99.90
45409;DHT22;31162;51.076;3.784;2023-04-28T13:55:37;20.80;99.90
45409;DHT22;31162;51.076;3.784;2023-04-28T13:58:03;21.00;99.90
45409;DHT22;31162;51.076;3.784;2023-04-28T14:00:31;20.70;99.90
45409;DHT22;31162;51.076;3.784;2023-04-28T14:02:58;20.30;99.90
45409;DHT22;31162;51.076;3.784;2023-04-28T14:05:24;20.10;99.90
45409;DHT22;31162;51.076;3.784;2023-04-28T14:07:52;20.20;99.90
45409;DHT22;31162;51.076;3.784;2023-04-28T14:10:20;20.20;99.90
45409;DHT22;31162;51.076;3.784;2023-04-28T14:12:48;20.20;99.90
45409;DHT22;31162;51.076;3.784;2023-04-28T14:15:14;20.20;99.90
45409;DHT22;31162;51.076;3.784;2023-04-28T14:17:41;20.20;99.90
45409;DHT22;31162;51.076;3.784;2023-04-28T14:20:07;20.10;99.90
45409;DHT22;31162;51.076;3.784;2023-04-28T14:22:37;20.50;99.90
45409;DHT22;31162;51.076;3.784;2023-04-28T14:25:02;20.90;99.90
45409;DHT22;31162;51.076;3.784;2023-04-28T14:27:28;21.20;99.90
45409;DHT22;31162;51.076;3.784;2023-04-28T14:29:54;21.40;99.90
45409;DHT22;31162;51.076;3.784;2023-04-28T14:32:19;21.40;99.90
45409;DHT22;31162;51.076;3.784;2023-04-28T14:34:49;21.10;99.90
45409;DHT22;31162;51.076;3.784;2023-04-28T14:37:15;20.80;99.90
45409;DHT22;31162;51.076;3.784;2023-04-28T14:39:42;20.90;99.90
45409;DHT22;31162;51.076;3.784;2023-04-28T14:42:08;21.00;99.90
45409;DHT22;31162;51.076;3.784;2023-04-28T14:44:34;20.90;99.90
45409;DHT22;31162;51.076;3.784;2023-04-28T14:47:01;20.90;99.90
45409;DHT22;31162;51.076;3.784;2023-04-28T14:49:27;20.60;99.90
45409;DHT22;31162;51.076;3.784;2023-04-28T14:51:53;20.10;99.90
45409;DHT22;31162;51.076;3.784;2023-04-28T14:54:19;19.80;99.90
45409;DHT22;31162;51.076;3.784;2023-04-28T14:56:47;19.70;99.90
45409;DHT22;31162;51.076;3.784;2023-04-28T14:59:13;19.60;99.90
45409;DHT22;31162;51.076;3.784;2023-04-28T15:01:38;19.40;99.90
45409;DHT22;31162;51.076;3.784;2023-04-28T15:04:04;19.10;99.90
45409;DHT22;31162;51.076;3.784;2023-04-28T15:06:30;19.00;99.90
45409;DHT22;31162;51.076;3.784;2023-04-28T15:08:57;18.90;99.90
45409;DHT22;31162;51.076;3.784;2023-04-28T15:11:23;18.90;99.90
45409;DHT22;31162;51.076;3.784;2023-04-28T15:13:48;19.10;99.90
45409;DHT22;31162;51.076;3.784;2023-04-28T15:16:14;19.50;99.90
45409;DHT22;31162;51.076;3.784;2023-04-28T15:18:40;20.00;99.90
45409;DHT22;31162;51.076;3.784;2023-04-28T15:21:06;20.20;99.90
45409;DHT22;31162;51.076;3.784;2023-04-28T15:23:33;20.20;99.90
45409;DHT22;31162;51.076;3.784;2023-04-28T15:25:58;19.70;99.90
45409;DHT22;31162;51.076;3.784;2023-04-28T15:28:26;19.40;99.90
45409;DHT22;31162;51.076;3.784;2023-04-28T15:30:52;19.30;99.90
45409;DHT22;31162;51.076;3.784;2023-04-28T15:33:18;19.20;99.90
45409;DHT22;31162;51.076;3.784;2023-04-28T15:35:44;19.20;99.90
45409;DHT22;31162;51.076;3.784;2023-04-28T15:38:11;19.10;99.90
45409;DHT22;31162;51.076;3.784;2023-04-28T15:40:40;18.90;99.90
45409;DHT22;31162;51.076;3.784;2023-04-28T15:43:06;18.70;99.90
45409;DHT22;31162;51.076;3.784;2023-04-28T15:45:32;18.60;99.90
45409;DHT22;31162;51.076;3.784;2023-04-28T15:48:04;18.50;99.90
45409;DHT22;31162;51.076;3.784;2023-04-28T15:50:31;18.30;99.90
45409;DHT22;31162;51.076;3.784;2023-04-28T15:52:56;18.30;99.90
45409;DHT22;31162;51.076;3.784;2023-04-28T15:55:22;18.30;99.90
45409;DHT22;31162;51.076;3.784;2023-04-28T15:57:51;18.30;99.90
45409;DHT22;31162;51.076;3.784;2023-04-28T16:00:17;18.30;99.90
45409;DHT22;31162;51.076;3.784;2023-04-28T16:02:43;18.40;99.90